Time;durP1;ratioP1;P1;durP2;ratioP2;P2;SDS_P1;SDS_P2;PMS_P1;PMS_P2;Temp;Humidity;BMP_temperature;BMP_pressure;BME280_temperature;BME280_humidity;BME280_pressure;Samples;Min_cycle;Max_cycle;Signal;HPM_P1;HPM_P2
2022/01/08 00:02:15;;;;;;;;;0.00;0.00;;;;;;;;5049794;28;45444;-87
2022/01/08 00:04:40;;;;;;;;;0.00;0.00;;;;;;;;5050082;28;45521;-87
2022/01/08 00:07:06;;;;;;;;;0.00;0.00;;;;;;;;5050204;28;45502;-92
2022/01/08 00:09:31;;;;;;;;;0.00;0.00;;;;;;;;5049763;28;47778;-87
2022/01/08 00:11:56;;;;;;;;;1.00;0.00;;;;;;;;5049887;28;45492;-93
2022/01/08 00:14:23;;;;;;;;;0.00;0.00;;;;;;;;5052520;28;45341;-90
2022/01/08 00:16:48;;;;;;;;;0.00;0.00;;;;;;;;5049247;28;45793;-92
2022/01/08 00:19:14;;;;;;;;;0.25;0.25;;;;;;;;5050466;28;47180;-88
2022/01/08 00:21:39;;;;;;;;;0.00;0.00;;;;;;;;5049024;28;45675;-86
2022/01/08 00:24:04;;;;;;;;;1.00;1.00;;;;;;;;5049428;28;45503;-87
2022/01/08 00:26:30;;;;;;;;;0.00;0.00;;;;;;;;5049605;28;45442;-87
2022/01/08 00:28:55;;;;;;;;;0.00;0.00;;;;;;;;5049642;28;47160;-92
2022/01/08 00:31:20;;;;;;;;;0.00;0.00;;;;;;;;5049959;28;45737;-89
2022/01/08 00:33:47;;;;;;;;;0.00;0.00;;;;;;;;5050931;28;45333;-89
2022/01/08 00:36:12;;;;;;;;;0.00;0.00;;;;;;;;5049579;28;45390;-89
2022/01/08 00:38:37;;;;;;;;;0.00;0.00;;;;;;;;5051458;28;45360;-90
2022/01/08 00:41:03;;;;;;;;;0.00;0.00;;;;;;;;5050095;28;45761;-87
2022/01/08 00:43:28;;;;;;;;;0.00;0.00;;;;;;;;5050271;28;45741;-89
2022/01/08 00:45:53;;;;;;;;;0.00;0.00;;;;;;;;5049028;28;45368;-88
2022/01/08 00:48:19;;;;;;;;;0.00;0.00;;;;;;;;5049521;28;47220;-88
2022/01/08 00:50:44;;;;;;;;;0.00;0.00;;;;;;;;5048574;28;45694;-92
2022/01/08 00:53:09;;;;;;;;;1.00;1.00;;;;;;;;5049103;28;45709;-88
2022/01/08 00:55:34;;;;;;;;;1.00;0.00;;;;;;;;5050944;28;45422;-87
2022/01/08 00:58:00;;;;;;;;;0.00;0.00;;;;;;;;5049169;28;46846;-88
2022/01/08 01:00:25;;;;;;;;;1.00;0.00;;;;;;;;5049185;28;45410;-88
2022/01/08 01:02:50;;;;;;;;;0.00;0.00;;;;;;;;5050761;28;45424;-87
2022/01/08 01:05:15;;;;;;;;;0.00;0.00;;;;;;;;5051022;28;45468;-91
2022/01/08 01:07:41;;;;;;;;;1.00;1.00;;;;;;;;5047812;28;47229;-87
2022/01/08 01:10:07;;;;;;;;;0.00;0.00;;;;;;;;5050827;28;45642;-90
2022/01/08 01:12:33;;;;;;;;;0.50;0.50;;;;;;;;5050273;28;45434;-87
2022/01/08 01:14:58;;;;;;;;;0.00;0.00;;;;;;;;5066185;28;45727;-90
2022/01/08 01:17:23;;;;;;;;;0.00;0.00;;;;;;;;5051116;28;45346;-91
2022/01/08 01:19:49;;;;;;;;;0.00;0.00;;;;;;;;5049893;28;45612;-90
2022/01/08 01:22:18;;;;;;;;;0.00;0.00;;;;;;;;5049567;28;45404;-87
2022/01/08 01:24:43;;;;;;;;;0.75;0.75;;;;;;;;5049920;28;45783;-91
2022/01/08 01:27:46;;;;;;;;;0.00;0.00;;;;;;;;5048910;28;47059;-91
2022/01/08 01:30:15;;;;;;;;;1.00;1.00;;;;;;;;5039941;28;45820;-89
2022/01/08 01:48:45;;;;;;;;;1.00;1.00;;;;;;;;5051640;28;45580;-87
2022/01/08 01:51:18;;;;;;;;;2.00;2.00;;;;;;;;5054125;28;45510;-89
2022/01/08 01:53:43;;;;;;;;;1.50;1.00;;;;;;;;5052177;28;45523;-87
2022/01/08 01:56:08;;;;;;;;;0.00;0.00;;;;;;;;5052668;28;45487;-88
2022/01/08 01:58:34;;;;;;;;;1.00;1.00;;;;;;;;5052904;28;48595;-90
2022/01/08 02:01:01;;;;;;;;;0.67;0.00;;;;;;;;5051854;28;46024;-92
2022/01/08 02:03:26;;;;;;;;;1.00;1.00;;;;;;;;5052545;28;45481;-90
2022/01/08 02:05:51;;;;;;;;;2.00;1.33;;;;;;;;5051981;28;45677;-87
2022/01/08 02:08:17;;;;;;;;;1.00;0.67;;;;;;;;5051588;28;47937;-88
2022/01/08 02:10:42;;;;;;;;;1.67;1.67;;;;;;;;5053156;28;45539;-90
2022/01/08 02:13:07;;;;;;;;;1.00;1.00;;;;;;;;5052183;28;45331;-91
2022/01/08 02:15:32;;;;;;;;;0.75;0.75;;;;;;;;5051576;28;45411;-88
2022/01/08 02:17:58;;;;;;;;;2.00;2.00;;;;;;;;5052074;28;48277;-88
2022/01/08 02:20:23;;;;;;;;;1.00;1.00;;;;;;;;5051613;28;45813;-87
2022/01/08 02:22:48;;;;;;;;;2.00;2.00;;;;;;;;5050571;28;45711;-92
2022/01/08 02:25:13;;;;;;;;;2.33;1.67;;;;;;;;5052924;28;45509;-91
2022/01/08 02:27:38;;;;;;;;;2.33;2.00;;;;;;;;5051431;28;48326;-90
2022/01/08 02:30:04;;;;;;;;;0.00;0.00;;;;;;;;5051119;28;45389;-91
2022/01/08 02:32:31;;;;;;;;;1.00;1.00;;;;;;;;5051852;28;45497;-89
2022/01/08 02:34:56;;;;;;;;;1.00;0.75;;;;;;;;5051123;28;46002;-90
2022/01/08 02:37:25;;;;;;;;;1.25;1.25;;;;;;;;5051391;28;46189;-92
2022/01/08 02:39:51;;;;;;;;;0.00;0.00;;;;;;;;5051627;28;45517;-87
2022/01/08 02:42:20;;;;;;;;;1.00;0.50;;;;;;;;5041329;28;45357;-88
2022/01/08 02:44:46;;;;;;;;;0.50;0.50;;;;;;;;5051082;28;45308;-89
2022/01/08 02:47:15;;;;;;;;;1.00;1.00;;;;;;;;5050961;28;46869;-90
2022/01/08 02:49:40;;;;;;;;;0.00;0.00;;;;;;;;5052923;28;46155;-89
2022/01/08 02:52:07;;;;;;;;;0.00;0.00;;;;;;;;5052179;28;45572;-89
2022/01/08 02:54:32;;;;;;;;;1.00;0.75;;;;;;;;5051349;28;45638;-90
2022/01/08 02:56:57;;;;;;;;;1.00;1.00;;;;;;;;5052023;28;46961;-88
2022/01/08 02:59:23;;;;;;;;;0.67;0.33;;;;;;;;5050461;28;45322;-90
2022/01/08 03:01:48;;;;;;;;;0.50;0.50;;;;;;;;5051467;28;45659;-88
2022/01/08 03:04:16;;;;;;;;;1.00;0.33;;;;;;;;5051502;28;45463;-91
2022/01/08 03:06:42;;;;;;;;;0.75;0.00;;;;;;;;5049742;28;47157;-90
2022/01/08 03:09:08;;;;;;;;;1.00;1.00;;;;;;;;5051044;28;45401;-90
2022/01/08 03:11:33;;;;;;;;;0.75;0.00;;;;;;;;5050964;28;45929;-86
2022/01/08 03:13:58;;;;;;;;;0.00;0.00;;;;;;;;5051532;28;45793;-86
2022/01/08 03:16:23;;;;;;;;;0.00;0.00;;;;;;;;5051809;28;48564;-89
2022/01/08 03:18:49;;;;;;;;;0.75;0.00;;;;;;;;5051020;28;45748;-86
2022/01/08 03:21:17;;;;;;;;;1.50;1.50;;;;;;;;5050451;28;45422;-87
2022/01/08 03:23:48;;;;;;;;;0.25;0.25;;;;;;;;5051125;28;45655;-88
2022/01/08 03:26:14;;;;;;;;;0.00;0.00;;;;;;;;5051275;28;47155;-89
2022/01/08 03:28:39;;;;;;;;;2.00;1.00;;;;;;;;5049130;28;45842;-91
2022/01/08 03:31:05;;;;;;;;;1.00;1.00;;;;;;;;5050552;28;45590;-87
2022/01/08 03:33:30;;;;;;;;;2.00;2.00;;;;;;;;5050841;28;45601;-87
2022/01/08 03:35:55;;;;;;;;;2.00;2.00;;;;;;;;5049487;28;47941;-89
2022/01/08 03:38:21;;;;;;;;;3.00;3.00;;;;;;;;5051150;28;45505;-87
2022/01/08 03:40:46;;;;;;;;;2.00;2.00;;;;;;;;5067193;28;45438;-87
2022/01/08 03:43:11;;;;;;;;;2.67;2.00;;;;;;;;5052488;28;45719;-91
2022/01/08 03:45:37;;;;;;;;;5.00;5.00;;;;;;;;5049619;28;48253;-91
2022/01/08 03:50:30;;;;;;;;;3.75;3.00;;;;;;;;5051460;28;45561;-89
2022/01/08 03:52:55;;;;;;;;;3.00;3.00;;;;;;;;5050192;28;45717;-91
2022/01/08 03:55:22;;;;;;;;;2.75;2.00;;;;;;;;5051742;28;47583;-92
2022/01/08 03:57:47;;;;;;;;;3.00;2.00;;;;;;;;5051145;28;46180;-91
2022/01/08 04:00:12;;;;;;;;;5.33;3.00;;;;;;;;5053955;28;45411;-93
2022/01/08 04:02:38;;;;;;;;;2.50;2.00;;;;;;;;5050445;28;45554;-93
2022/01/08 04:05:03;;;;;;;;;0.00;0.00;;;;;;;;5051148;28;48038;-92
2022/01/08 04:07:28;;;;;;;;;1.00;1.00;;;;;;;;5050442;28;45434;-92
2022/01/08 04:09:54;;;;;;;;;1.00;1.00;;;;;;;;5049814;28;45557;-91
2022/01/08 04:12:29;;;;;;;;;0.00;0.00;;;;;;;;5051054;28;45473;-90
2022/01/08 04:15:05;;;;;;;;;1.50;1.00;;;;;;;;5050418;28;47207;-92
2022/01/08 04:17:30;;;;;;;;;1.00;1.00;;;;;;;;5050719;28;45996;-91
2022/01/08 04:19:55;;;;;;;;;1.00;1.00;;;;;;;;5050588;28;45421;-91
2022/01/08 04:22:20;;;;;;;;;0.67;0.67;;;;;;;;5050470;28;45446;-91
2022/01/08 04:24:49;;;;;;;;;0.00;0.00;;;;;;;;5050283;28;47223;-91
2022/01/08 04:27:15;;;;;;;;;0.00;0.00;;;;;;;;5050947;28;45441;-91
2022/01/08 04:29:40;;;;;;;;;0.00;0.00;;;;;;;;5050461;28;45370;-91
2022/01/08 04:32:06;;;;;;;;;1.00;0.00;;;;;;;;5050513;28;45704;-91
2022/01/08 04:34:31;;;;;;;;;1.50;1.00;;;;;;;;5049276;28;47753;-91
2022/01/08 04:36:56;;;;;;;;;0.00;0.00;;;;;;;;5048667;28;45786;-91
2022/01/08 04:39:21;;;;;;;;;1.67;1.67;;;;;;;;5050780;28;45430;-90
2022/01/08 04:41:47;;;;;;;;;1.00;1.00;;;;;;;;5049940;28;45572;-91
2022/01/08 04:44:12;;;;;;;;;2.00;1.00;;;;;;;;5051854;28;45605;-93
2022/01/08 04:46:38;;;;;;;;;0.33;0.33;;;;;;;;5050232;28;45497;-92
2022/01/08 04:49:04;;;;;;;;;2.00;1.25;;;;;;;;5049598;28;45452;-89
2022/01/08 04:51:30;;;;;;;;;1.00;0.50;;;;;;;;5049316;28;45538;-92
2022/01/08 04:53:55;;;;;;;;;1.00;1.00;;;;;;;;5049343;28;48032;-90
2022/01/08 04:56:20;;;;;;;;;1.00;1.00;;;;;;;;5050753;28;45614;-90
2022/01/08 04:58:45;;;;;;;;;0.00;0.00;;;;;;;;5048948;28;45514;-88
2022/01/08 05:01:11;;;;;;;;;2.00;2.00;;;;;;;;5049252;28;45509;-91
2022/01/08 05:03:36;;;;;;;;;1.00;1.00;;;;;;;;5048900;28;47272;-88
2022/01/08 05:06:01;;;;;;;;;1.00;1.00;;;;;;;;5049494;28;45606;-90
2022/01/08 05:08:27;;;;;;;;;1.00;1.00;;;;;;;;5048959;28;45439;-92
2022/01/08 05:10:52;;;;;;;;;1.00;1.00;;;;;;;;5048461;28;46309;-86
2022/01/08 05:13:17;;;;;;;;;1.00;1.00;;;;;;;;5050779;28;46811;-87
2022/01/08 05:15:42;;;;;;;;;1.33;1.00;;;;;;;;5048332;28;45742;-89
2022/01/08 05:18:09;;;;;;;;;1.00;1.00;;;;;;;;5048971;28;45417;-87
2022/01/08 05:20:37;;;;;;;;;0.25;0.25;;;;;;;;5048610;28;45546;-87
2022/01/08 05:23:04;;;;;;;;;1.00;1.00;;;;;;;;5047994;28;47355;-90
2022/01/08 05:25:29;;;;;;;;;2.00;2.00;;;;;;;;5049843;28;45474;-93
2022/01/08 05:27:55;;;;;;;;;2.00;0.50;;;;;;;;5048321;28;45470;-86
2022/01/08 05:30:22;;;;;;;;;0.50;0.00;;;;;;;;5049077;28;45276;-88
2022/01/08 05:32:47;;;;;;;;;0.25;0.25;;;;;;;;5043072;28;45607;-87
2022/01/08 05:35:13;;;;;;;;;1.00;1.00;;;;;;;;5048677;28;45445;-90
2022/01/08 05:37:38;;;;;;;;;1.00;1.00;;;;;;;;5047896;28;45416;-90
2022/01/08 05:40:04;;;;;;;;;1.00;1.00;;;;;;;;5048452;28;45372;-87
2022/01/08 05:42:29;;;;;;;;;0.75;0.75;;;;;;;;5049472;28;45413;-89
2022/01/08 05:44:54;;;;;;;;;1.00;1.00;;;;;;;;5049534;28;45822;-91
2022/01/08 05:47:23;;;;;;;;;9.33;9.33;;;;;;;;5048912;28;45616;-90
2022/01/08 05:49:48;;;;;;;;;2.00;1.50;;;;;;;;5047484;28;45482;-88
2022/01/08 05:52:13;;;;;;;;;3.00;2.00;;;;;;;;5049391;28;46963;-90
2022/01/08 05:54:39;;;;;;;;;0.00;0.00;;;;;;;;5047917;28;45589;-87
2022/01/08 05:57:04;;;;;;;;;0.00;0.00;;;;;;;;5048276;28;45587;-92
2022/01/08 05:59:30;;;;;;;;;1.00;0.25;;;;;;;;5050282;28;45440;-87
2022/01/08 06:01:56;;;;;;;;;1.00;1.00;;;;;;;;5048195;28;47289;-89
2022/01/08 06:04:21;;;;;;;;;1.00;1.00;;;;;;;;5048510;28;45706;-89
2022/01/08 06:06:46;;;;;;;;;1.00;1.00;;;;;;;;5047687;28;45391;-87
2022/01/08 06:09:11;;;;;;;;;1.33;1.00;;;;;;;;5048449;28;45828;-88
2022/01/08 06:11:37;;;;;;;;;1.00;1.00;;;;;;;;5048637;28;47638;-88
2022/01/08 06:14:02;;;;;;;;;2.25;2.00;;;;;;;;5048271;28;45533;-88
2022/01/08 06:16:33;;;;;;;;;2.00;1.75;;;;;;;;5048518;28;45473;-89
2022/01/08 06:18:58;;;;;;;;;2.25;2.00;;;;;;;;5047528;28;45450;-87
2022/01/08 06:21:24;;;;;;;;;1.00;1.00;;;;;;;;5047281;28;48045;-88
2022/01/08 06:23:49;;;;;;;;;1.33;1.33;;;;;;;;5048254;28;45946;-90
2022/01/08 06:26:14;;;;;;;;;2.00;2.00;;;;;;;;5051689;28;45574;-93
2022/01/08 06:28:40;;;;;;;;;4.33;4.33;;;;;;;;5052322;28;45434;-94
2022/01/08 06:31:05;;;;;;;;;5.00;3.00;;;;;;;;5048436;28;47932;-96
2022/01/08 06:33:30;;;;;;;;;3.25;2.75;;;;;;;;5050548;28;45524;-95
2022/01/08 06:35:56;;;;;;;;;2.00;2.00;;;;;;;;5052052;28;45399;-96
2022/01/08 06:38:21;;;;;;;;;5.00;5.00;;;;;;;;5055438;28;45613;-94
2022/01/08 06:40:46;;;;;;;;;2.00;1.33;;;;;;;;5052950;28;46914;-88
2022/01/08 06:43:12;;;;;;;;;4.33;4.33;;;;;;;;5052373;28;45628;-90
2022/01/08 06:45:37;;;;;;;;;5.75;2.00;;;;;;;;5054885;28;45227;-88
2022/01/08 06:48:02;;;;;;;;;6.00;3.67;;;;;;;;5065285;28;45384;-87
2022/01/08 06:50:28;;;;;;;;;2.50;2.50;;;;;;;;5061336;28;47022;-89
2022/01/08 06:52:53;;;;;;;;;2.25;2.00;;;;;;;;5064983;28;45330;-89
2022/01/08 06:55:19;;;;;;;;;1.00;0.00;;;;;;;;5056961;28;45538;-93
2022/01/08 06:57:44;;;;;;;;;2.00;2.00;;;;;;;;5062429;28;45356;-92
2022/01/08 07:00:09;;;;;;;;;1.75;1.75;;;;;;;;5054432;28;47292;-91
2022/01/08 07:02:35;;;;;;;;;2.00;2.00;;;;;;;;5055183;28;45440;-89
2022/01/08 07:05:00;;;;;;;;;2.00;2.00;;;;;;;;5065581;28;45270;-88
2022/01/08 07:07:25;;;;;;;;;2.00;2.00;;;;;;;;5061321;28;45370;-91
2022/01/08 07:09:51;;;;;;;;;3.00;2.00;;;;;;;;5047395;28;47020;-89
2022/01/08 07:12:16;;;;;;;;;5.25;4.50;;;;;;;;5046949;28;45449;-90
2022/01/08 07:14:41;;;;;;;;;9.75;7.00;;;;;;;;5048339;28;45547;-88
2022/01/08 07:17:06;;;;;;;;;6.33;6.00;;;;;;;;5053769;28;45410;-90
2022/01/08 07:19:32;;;;;;;;;3.67;2.00;;;;;;;;5050935;28;47146;-88
2022/01/08 07:21:59;;;;;;;;;5.00;4.33;;;;;;;;5051069;28;46123;-89
2022/01/08 07:24:24;;;;;;;;;12.00;11.00;;;;;;;;5051840;28;45546;-96
2022/01/08 07:26:49;;;;;;;;;10.33;10.00;;;;;;;;5050880;28;45458;-95
2022/01/08 07:29:14;;;;;;;;;12.33;10.33;;;;;;;;5051591;28;47149;-94
2022/01/08 07:31:40;;;;;;;;;9.67;9.67;;;;;;;;5047143;28;45848;-90
2022/01/08 07:34:05;;;;;;;;;13.00;11.33;;;;;;;;5043890;28;45313;-95
2022/01/08 07:36:30;;;;;;;;;9.67;7.67;;;;;;;;5055409;28;45487;-95
2022/01/08 07:38:55;;;;;;;;;7.00;7.00;;;;;;;;5053894;28;47070;-94
2022/01/08 07:41:21;;;;;;;;;6.00;5.67;;;;;;;;5051846;28;45532;-93
2022/01/08 07:43:46;;;;;;;;;4.00;4.00;;;;;;;;5041421;28;45361;-89
2022/01/08 07:46:11;;;;;;;;;5.00;4.33;;;;;;;;5050431;28;45616;-94
2022/01/08 07:48:37;;;;;;;;;5.00;3.00;;;;;;;;5050579;28;47960;-93
2022/01/08 07:51:02;;;;;;;;;3.67;3.00;;;;;;;;5050640;28;45543;-93
2022/01/08 07:53:27;;;;;;;;;3.00;2.00;;;;;;;;5051544;28;45509;-93
2022/01/08 07:55:53;;;;;;;;;1.00;1.00;;;;;;;;5050640;28;45358;-94
2022/01/08 07:58:21;;;;;;;;;2.00;2.00;;;;;;;;5051621;28;48129;-91
2022/01/08 08:00:57;;;;;;;;;3.00;2.00;;;;;;;;5069405;28;45230;-89
2022/01/08 08:03:22;;;;;;;;;1.50;0.25;;;;;;;;5068987;28;45102;-89
2022/01/08 08:05:47;;;;;;;;;2.50;2.50;;;;;;;;5068609;28;45230;-89
2022/01/08 08:08:17;;;;;;;;;2.33;2.00;;;;;;;;5070551;28;45298;-90
2022/01/08 08:10:42;;;;;;;;;2.00;2.00;;;;;;;;5068211;28;45342;-92
2022/01/08 08:13:07;;;;;;;;;3.00;3.00;;;;;;;;5069331;28;45032;-89
2022/01/08 08:15:33;;;;;;;;;2.67;2.67;;;;;;;;5069512;28;45252;-92
2022/01/08 08:17:58;;;;;;;;;5.50;5.50;;;;;;;;5060783;28;46978;-88
2022/01/08 08:20:23;;;;;;;;;6.00;5.00;;;;;;;;5051012;28;45452;-92
2022/01/08 08:22:48;;;;;;;;;6.33;6.00;;;;;;;;5061096;28;45384;-89
2022/01/08 08:25:14;;;;;;;;;8.00;7.00;;;;;;;;5062267;28;44831;-93
2022/01/08 08:27:39;;;;;;;;;5.00;3.00;;;;;;;;5057554;28;47389;-90
2022/01/08 08:30:05;;;;;;;;;11.00;7.25;;;;;;;;5055960;28;45482;-96
2022/01/08 08:32:31;;;;;;;;;6.25;5.50;;;;;;;;5052652;28;45345;-93
2022/01/08 08:34:56;;;;;;;;;5.00;5.00;;;;;;;;5054356;28;45396;-93
2022/01/08 08:37:21;;;;;;;;;6.00;5.67;;;;;;;;5055217;28;45444;-87
2022/01/08 08:39:48;;;;;;;;;8.00;7.00;;;;;;;;5057704;28;45300;-87
2022/01/08 08:42:13;;;;;;;;;11.00;8.50;;;;;;;;5055980;28;45633;-95
2022/01/08 08:44:39;;;;;;;;;10.25;8.25;;;;;;;;5062757;28;44985;-92
2022/01/08 08:47:04;;;;;;;;;11.33;7.33;;;;;;;;5054945;28;47034;-91
2022/01/08 08:49:29;;;;;;;;;12.00;9.25;;;;;;;;5059398;28;45610;-91
2022/01/08 08:51:55;;;;;;;;;9.00;7.75;;;;;;;;5052503;28;45432;-90
2022/01/08 08:54:20;;;;;;;;;6.67;6.00;;;;;;;;5057340;28;45294;-94
2022/01/08 08:56:45;;;;;;;;;12.00;9.67;;;;;;;;5052718;28;46911;-87
2022/01/08 08:59:10;;;;;;;;;8.00;6.33;;;;;;;;5051603;28;45477;-93
2022/01/08 09:01:35;;;;;;;;;9.67;8.33;;;;;;;;5055760;28;45404;-92
2022/01/08 09:04:01;;;;;;;;;3.00;2.67;;;;;;;;5056835;28;45582;-86
2022/01/08 09:06:26;;;;;;;;;12.00;12.00;;;;;;;;5051097;28;46965;-94
2022/01/08 09:08:52;;;;;;;;;10.25;10.25;;;;;;;;5047730;28;45730;-87
2022/01/08 09:11:17;;;;;;;;;16.00;14.00;;;;;;;;5050321;28;45389;-90
2022/01/08 09:13:43;;;;;;;;;13.00;9.67;;;;;;;;5051489;28;45421;-92
2022/01/08 09:16:08;;;;;;;;;12.50;11.00;;;;;;;;5054628;28;47205;-89
2022/01/08 09:18:33;;;;;;;;;14.33;11.00;;;;;;;;5052736;28;45909;-90
2022/01/08 09:20:58;;;;;;;;;11.25;11.00;;;;;;;;5053299;28;46324;-92
2022/01/08 09:23:24;;;;;;;;;13.00;11.33;;;;;;;;5050128;28;45641;-85
2022/01/08 09:25:49;;;;;;;;;15.67;11.33;;;;;;;;5057194;28;47737;-86
2022/01/08 09:28:14;;;;;;;;;16.00;14.00;;;;;;;;5058231;28;45863;-87
2022/01/08 09:30:39;;;;;;;;;12.00;11.33;;;;;;;;5057399;28;45420;-88
2022/01/08 09:33:05;;;;;;;;;13.00;12.00;;;;;;;;5059987;28;44970;-90
2022/01/08 09:35:30;;;;;;;;;10.25;8.75;;;;;;;;5061418;28;47069;-86
2022/01/08 09:37:56;;;;;;;;;11.67;8.33;;;;;;;;5061435;28;44849;-89
2022/01/08 09:40:24;;;;;;;;;6.75;6.00;;;;;;;;5058488;28;44875;-89
2022/01/08 09:43:00;;;;;;;;;6.75;6.75;;;;;;;;5057189;28;44883;-86
2022/01/08 09:45:25;;;;;;;;;8.50;6.50;;;;;;;;5031823;28;48590;-88
2022/01/08 09:47:50;;;;;;;;;6.33;6.33;;;;;;;;5036382;28;46008;-88
2022/01/08 09:50:16;;;;;;;;;7.00;6.00;;;;;;;;5065230;28;45079;-85
2022/01/08 09:52:41;;;;;;;;;9.67;7.67;;;;;;;;5055937;28;45479;-86
2022/01/08 09:55:06;;;;;;;;;7.33;6.67;;;;;;;;5063808;28;47048;-89
2022/01/08 09:57:32;;;;;;;;;7.50;7.00;;;;;;;;5065134;28;45519;-84
2022/01/08 09:59:57;;;;;;;;;9.33;9.33;;;;;;;;5064532;28;45772;-83
2022/01/08 10:02:23;;;;;;;;;7.50;7.25;;;;;;;;5064192;28;45711;-84
2022/01/08 10:04:49;;;;;;;;;7.00;7.00;;;;;;;;5044437;28;47255;-86
2022/01/08 10:07:25;;;;;;;;;7.00;6.00;;;;;;;;5060452;28;45428;-84
2022/01/08 10:10:01;;;;;;;;;10.25;8.25;;;;;;;;5060072;28;45834;-85
2022/01/08 10:12:39;;;;;;;;;10.25;7.75;;;;;;;;5059576;28;45764;-92
2022/01/08 10:17:48;;;;;;;;;8.50;7.00;;;;;;;;5055269;28;45943;-96
2022/01/08 10:20:26;;;;;;;;;10.67;9.00;;;;;;;;5055436;28;45420;-88
2022/01/08 10:23:12;;;;;;;;;10.75;9.00;;;;;;;;5054479;28;45307;-94
2022/01/08 10:25:40;;;;;;;;;6.00;6.00;;;;;;;;5054919;28;48321;-90
2022/01/08 10:28:08;;;;;;;;;8.00;7.50;;;;;;;;5047040;28;45590;-93
2022/01/08 10:30:33;;;;;;;;;10.25;7.00;;;;;;;;5069744;28;45693;-87
2022/01/08 10:32:59;;;;;;;;;12.67;9.00;;;;;;;;5065662;28;45009;-87
2022/01/08 10:35:43;;;;;;;;;6.75;4.50;;;;;;;;5061849;28;48095;-85
2022/01/08 10:38:09;;;;;;;;;8.25;5.75;;;;;;;;5065003;28;45824;-85
2022/01/08 10:40:34;;;;;;;;;4.00;4.00;;;;;;;;5066813;28;45540;-86
2022/01/08 10:42:59;;;;;;;;;7.00;5.75;;;;;;;;5062628;28;45454;-93
2022/01/08 10:45:25;;;;;;;;;8.33;7.33;;;;;;;;5064414;28;48383;-87
2022/01/08 10:48:02;;;;;;;;;7.50;5.25;;;;;;;;5048553;28;46122;-88
2022/01/08 10:50:27;;;;;;;;;7.00;6.25;;;;;;;;5066650;28;45301;-88
2022/01/08 10:52:53;;;;;;;;;5.25;5.25;;;;;;;;5062800;28;44805;-90
2022/01/08 10:55:31;;;;;;;;;7.25;6.00;;;;;;;;5085712;28;46815;-87
2022/01/08 10:57:58;;;;;;;;;4.00;4.00;;;;;;;;5048427;28;46114;-87
2022/01/08 11:00:31;;;;;;;;;12.25;6.25;;;;;;;;5055978;28;45680;-87
2022/01/08 11:02:56;;;;;;;;;8.25;7.50;;;;;;;;5062482;28;45470;-87
2022/01/08 11:05:22;;;;;;;;;7.67;5.33;;;;;;;;5069570;28;47214;-87
2022/01/08 11:07:47;;;;;;;;;4.50;3.75;;;;;;;;5068427;28;45173;-87
2022/01/08 11:10:17;;;;;;;;;7.33;7.00;;;;;;;;5069882;28;45203;-86
2022/01/08 11:12:44;;;;;;;;;7.75;5.75;;;;;;;;5069781;28;45431;-85
2022/01/08 11:17:43;;;;;;;;;4.25;3.25;;;;;;;;5071846;28;45489;-86
2022/01/08 11:20:19;;;;;;;;;7.00;3.00;;;;;;;;5072824;28;45032;-87
2022/01/08 11:22:45;;;;;;;;;5.75;5.00;;;;;;;;5065969;28;45554;-87
2022/01/08 11:25:24;;;;;;;;;9.00;6.25;;;;;;;;5071046;28;47313;-86
2022/01/08 11:27:56;;;;;;;;;9.00;6.00;;;;;;;;5070845;28;45632;-87
2022/01/08 11:30:28;;;;;;;;;4.00;2.00;;;;;;;;5074612;28;45321;-86
2022/01/08 11:32:57;;;;;;;;;6.00;4.00;;;;;;;;5067899;28;45348;-86
2022/01/08 11:35:25;;;;;;;;;5.00;4.00;;;;;;;;5051478;28;47628;-85
2022/01/08 11:37:51;;;;;;;;;7.00;3.50;;;;;;;;5074056;28;45344;-86
2022/01/08 11:40:19;;;;;;;;;6.00;4.50;;;;;;;;5073800;28;45167;-89
2022/01/08 11:42:45;;;;;;;;;6.75;5.75;;;;;;;;5067305;28;45764;-86
2022/01/08 11:45:13;;;;;;;;;3.00;3.00;;;;;;;;5070506;28;46997;-87
2022/01/08 11:47:41;;;;;;;;;8.00;4.50;;;;;;;;5073697;28;45336;-87
2022/01/08 11:50:10;;;;;;;;;6.75;4.25;;;;;;;;5070948;28;45177;-87
2022/01/08 11:52:35;;;;;;;;;6.50;6.50;;;;;;;;5067246;28;45483;-89
2022/01/08 11:55:01;;;;;;;;;6.33;4.33;;;;;;;;5069680;28;47025;-92
2022/01/08 11:57:27;;;;;;;;;6.00;6.00;;;;;;;;5075834;28;44824;-87
2022/01/08 11:59:57;;;;;;;;;6.25;3.50;;;;;;;;5071651;28;45439;-89
2022/01/08 12:02:32;;;;;;;;;6.00;6.00;;;;;;;;5068795;28;44889;-88
2022/01/08 12:05:00;;;;;;;;;8.00;5.00;;;;;;;;5069727;28;47048;-87
2022/01/08 12:07:33;;;;;;;;;9.00;5.25;;;;;;;;5068968;28;45063;-87
2022/01/08 12:10:26;;;;;;;;;7.25;6.00;;;;;;;;5068623;28;45521;-93
2022/01/08 12:12:54;;;;;;;;;5.00;3.75;;;;;;;;5047662;28;44944;-86
2022/01/08 12:15:38;;;;;;;;;9.50;6.75;;;;;;;;5048745;28;48524;-87
2022/01/08 12:18:04;;;;;;;;;6.75;5.00;;;;;;;;5050786;28;45711;-86
2022/01/08 12:20:39;;;;;;;;;7.00;5.33;;;;;;;;5067263;28;45278;-93
2022/01/08 12:23:28;;;;;;;;;5.75;5.50;;;;;;;;5060856;28;45456;-93
2022/01/08 12:25:53;;;;;;;;;6.25;3.25;;;;;;;;5051224;28;46399;-92
2022/01/08 12:28:37;;;;;;;;;4.00;3.00;;;;;;;;5062619;28;45788;-86
2022/01/08 12:31:21;;;;;;;;;5.25;4.00;;;;;;;;5063603;28;45431;-87
2022/01/08 12:33:46;;;;;;;;;5.75;4.00;;;;;;;;5053902;28;45519;-88
2022/01/08 12:36:33;;;;;;;;;7.33;6.67;;;;;;;;5065792;28;47202;-88
2022/01/08 12:39:03;;;;;;;;;6.50;4.75;;;;;;;;5064363;28;45805;-86
2022/01/08 12:41:29;;;;;;;;;6.25;3.75;;;;;;;;5066022;28;45359;-87
2022/01/08 12:43:55;;;;;;;;;8.00;5.00;;;;;;;;5066619;28;45485;-87
2022/01/08 12:46:28;;;;;;;;;5.67;5.33;;;;;;;;5066766;28;46541;-87
2022/01/08 12:49:06;;;;;;;;;7.00;4.50;;;;;;;;5063653;28;45474;-87
2022/01/08 12:52:00;;;;;;;;;6.25;5.50;;;;;;;;5065764;28;45339;-87
2022/01/08 12:54:26;;;;;;;;;8.75;6.50;;;;;;;;5024396;28;45587;-88
2022/01/08 12:56:58;;;;;;;;;5.25;4.75;;;;;;;;5025818;28;47077;-87
2022/01/08 12:59:31;;;;;;;;;7.50;6.75;;;;;;;;5026452;28;45768;-87
2022/01/08 13:01:57;;;;;;;;;8.50;7.75;;;;;;;;5017132;28;45371;-89
2022/01/08 13:04:24;;;;;;;;;7.67;4.67;;;;;;;;5014354;28;45553;-88
2022/01/08 13:06:49;;;;;;;;;4.00;3.00;;;;;;;;5009711;28;46978;-89
2022/01/08 13:09:17;;;;;;;;;5.00;5.00;;;;;;;;5004936;28;45617;-89
2022/01/08 13:11:43;;;;;;;;;4.50;4.00;;;;;;;;5003838;28;44876;-87
2022/01/08 13:14:10;;;;;;;;;6.50;5.00;;;;;;;;5007245;28;45368;-87
2022/01/08 13:16:36;;;;;;;;;6.00;4.00;;;;;;;;5006119;28;48090;-87
2022/01/08 13:19:07;;;;;;;;;5.25;5.00;;;;;;;;5013906;28;45316;-87
2022/01/08 13:21:34;;;;;;;;;6.75;6.25;;;;;;;;5015484;28;44718;-87
2022/01/08 13:24:11;;;;;;;;;8.00;7.00;;;;;;;;5020184;28;45423;-87
2022/01/08 13:26:40;;;;;;;;;4.75;4.50;;;;;;;;5074586;28;47902;-86
2022/01/08 13:29:27;;;;;;;;;7.25;4.25;;;;;;;;5073159;28;45436;-87
2022/01/08 13:31:57;;;;;;;;;2.00;2.00;;;;;;;;5068163;28;44785;-87
2022/01/08 13:34:25;;;;;;;;;4.75;3.75;;;;;;;;5068639;28;45353;-87
2022/01/08 13:36:55;;;;;;;;;4.00;3.00;;;;;;;;5066999;28;47508;-87
2022/01/08 13:39:28;;;;;;;;;9.75;6.75;;;;;;;;5069982;28;45081;-87
2022/01/08 13:42:10;;;;;;;;;3.00;3.00;;;;;;;;5068673;28;45505;-88
2022/01/08 13:44:36;;;;;;;;;3.75;3.75;;;;;;;;5071398;28;45408;-87
2022/01/08 13:47:02;;;;;;;;;4.00;3.25;;;;;;;;5072091;28;47269;-87
2022/01/08 13:49:28;;;;;;;;;4.50;3.25;;;;;;;;5072247;28;45252;-88
2022/01/08 13:51:56;;;;;;;;;7.00;5.25;;;;;;;;5072141;28;45125;-86
2022/01/08 13:54:33;;;;;;;;;4.75;3.00;;;;;;;;5072179;28;45468;-87
2022/01/08 13:57:09;;;;;;;;;4.50;3.25;;;;;;;;5076545;28;46987;-88
2022/01/08 13:59:38;;;;;;;;;4.25;3.50;;;;;;;;5075679;28;45669;-87
2022/01/08 14:02:03;;;;;;;;;3.25;2.50;;;;;;;;5072313;28;45600;-87
2022/01/08 14:04:30;;;;;;;;;4.00;4.00;;;;;;;;5074571;28;45013;-87
2022/01/08 14:06:59;;;;;;;;;7.25;5.50;;;;;;;;5076048;28;47746;-87
2022/01/08 14:09:25;;;;;;;;;3.50;2.50;;;;;;;;5075891;28;45883;-87
2022/01/08 14:12:07;;;;;;;;;3.50;2.50;;;;;;;;5074448;28;45292;-87
2022/01/08 14:14:39;;;;;;;;;4.25;3.25;;;;;;;;5069223;28;45299;-87
2022/01/08 14:17:12;;;;;;;;;3.50;3.00;;;;;;;;5071457;28;47584;-87
2022/01/08 14:19:49;;;;;;;;;3.75;3.00;;;;;;;;5069728;28;45358;-87
2022/01/08 14:22:22;;;;;;;;;4.50;3.75;;;;;;;;5047241;28;45505;-89
2022/01/08 14:24:49;;;;;;;;;3.25;3.25;;;;;;;;5035863;28;45457;-87
2022/01/08 14:27:16;;;;;;;;;4.25;4.00;;;;;;;;5046698;28;45493;-85
2022/01/08 14:29:44;;;;;;;;;3.75;3.00;;;;;;;;5037766;28;45657;-92
2022/01/08 14:32:10;;;;;;;;;4.50;3.25;;;;;;;;5040548;28;44768;-92
2022/01/08 14:34:43;;;;;;;;;4.50;3.50;;;;;;;;5052597;28;45722;-90
2022/01/08 14:37:13;;;;;;;;;4.50;4.50;;;;;;;;5052564;28;48025;-91
2022/01/08 14:39:40;;;;;;;;;9.00;8.75;;;;;;;;5056189;28;45704;-89
2022/01/08 14:42:15;;;;;;;;;8.00;7.00;;;;;;;;5065354;28;45328;-87
2022/01/08 14:44:48;;;;;;;;;4.00;2.50;;;;;;;;5055382;28;45253;-94
2022/01/08 14:47:13;;;;;;;;;2.75;2.25;;;;;;;;5055279;28;48075;-91
2022/01/08 14:49:39;;;;;;;;;4.67;4.67;;;;;;;;5063273;28;45726;-94
2022/01/08 14:52:04;;;;;;;;;1.67;1.00;;;;;;;;5056887;28;45476;-89
2022/01/08 14:54:30;;;;;;;;;4.25;3.25;;;;;;;;5069250;28;45182;-88
2022/01/08 14:56:56;;;;;;;;;3.00;2.00;;;;;;;;5070936;28;45258;-94
2022/01/08 14:59:22;;;;;;;;;4.00;3.00;;;;;;;;5071688;28;45122;-91
2022/01/08 15:01:47;;;;;;;;;3.00;3.00;;;;;;;;5058804;28;45312;-86
2022/01/08 15:04:12;;;;;;;;;3.00;2.00;;;;;;;;5048817;28;45605;-94
2022/01/08 15:06:37;;;;;;;;;3.50;3.00;;;;;;;;5057512;28;47947;-91